sensor_id;sensor_type;location;lat;lon;timestamp;P1;durP1;ratioP1;P2;durP2;ratioP2
58621;SDS011;44389;51.578;5.456;2023-05-17T00:00:44;25.65;;;7.47;;
58621;SDS011;44389;51.578;5.456;2023-05-17T00:03:10;20.60;;;7.63;;
58621;SDS011;44389;51.578;5.456;2023-05-17T00:05:35;21.20;;;7.50;;
58621;SDS011;44389;51.578;5.456;2023-05-17T00:08:00;19.42;;;7.90;;
58621;SDS011;44389;51.578;5.456;2023-05-17T00:10:25;21.30;;;7.43;;
58621;SDS011;44389;51.578;5.456;2023-05-17T00:12:51;22.98;;;7.70;;
58621;SDS011;44389;51.578;5.456;2023-05-17T00:15:16;16.73;;;7.78;;
58621;SDS011;44389;51.578;5.456;2023-05-17T00:17:41;19.23;;;8.25;;
58621;SDS011;44389;51.578;5.456;2023-05-17T00:20:07;18.05;;;7.68;;
58621;SDS011;44389;51.578;5.456;2023-05-17T00:22:32;20.42;;;7.60;;
58621;SDS011;44389;51.578;5.456;2023-05-17T00:24:58;22.25;;;9.02;;
58621;SDS011;44389;51.578;5.456;2023-05-17T00:27:23;22.00;;;8.60;;
58621;SDS011;44389;51.578;5.456;2023-05-17T00:29:48;37.80;;;8.75;;
58621;SDS011;44389;51.578;5.456;2023-05-17T00:32:14;24.15;;;8.30;;
58621;SDS011;44389;51.578;5.456;2023-05-17T00:34:39;25.00;;;8.80;;
58621;SDS011;44389;51.578;5.456;2023-05-17T00:37:05;23.60;;;8.85;;
58621;SDS011;44389;51.578;5.456;2023-05-17T00:39:30;21.67;;;9.10;;
58621;SDS011;44389;51.578;5.456;2023-05-17T00:41:55;19.55;;;8.68;;
58621;SDS011;44389;51.578;5.456;2023-05-17T00:44:21;22.35;;;9.13;;
58621;SDS011;44389;51.578;5.456;2023-05-17T00:46:46;21.95;;;9.18;;
58621;SDS011;44389;51.578;5.456;2023-05-17T00:49:11;23.27;;;8.77;;
58621;SDS011;44389;51.578;5.456;2023-05-17T00:51:37;23.95;;;9.48;;
58621;SDS011;44389;51.578;5.456;2023-05-17T00:54:03;25.50;;;9.40;;
58621;SDS011;44389;51.578;5.456;2023-05-17T00:56:29;25.75;;;9.63;;
58621;SDS011;44389;51.578;5.456;2023-05-17T00:58:55;21.58;;;10.48;;
58621;SDS011;44389;51.578;5.456;2023-05-17T01:01:21;22.75;;;10.73;;
58621;SDS011;44389;51.578;5.456;2023-05-17T01:03:46;26.05;;;10.98;;
58621;SDS011;44389;51.578;5.456;2023-05-17T01:06:12;23.25;;;9.10;;
58621;SDS011;44389;51.578;5.456;2023-05-17T01:08:38;24.95;;;10.45;;
58621;SDS011;44389;51.578;5.456;2023-05-17T01:11:13;24.60;;;9.85;;
58621;SDS011;44389;51.578;5.456;2023-05-17T01:16:44;27.23;;;11.02;;
58621;SDS011;44389;51.578;5.456;2023-05-17T01:27:38;21.95;;;10.07;;
58621;SDS011;44389;51.578;5.456;2023-05-17T01:30:06;28.17;;;9.63;;
58621;SDS011;44389;51.578;5.456;2023-05-17T01:32:37;24.92;;;10.88;;
58621;SDS011;44389;51.578;5.456;2023-05-17T01:35:05;25.10;;;11.25;;
58621;SDS011;44389;51.578;5.456;2023-05-17T01:37:30;26.27;;;11.80;;
58621;SDS011;44389;51.578;5.456;2023-05-17T01:39:55;31.67;;;11.95;;
58621;SDS011;44389;51.578;5.456;2023-05-17T01:42:22;25.92;;;12.13;;
58621;SDS011;44389;51.578;5.456;2023-05-17T01:50:29;25.10;;;10.85;;
58621;SDS011;44389;51.578;5.456;2023-05-17T01:53:01;26.85;;;11.85;;
58621;SDS011;44389;51.578;5.456;2023-05-17T01:55:48;28.40;;;11.77;;
58621;SDS011;44389;51.578;5.456;2023-05-17T01:58:15;30.17;;;12.05;;
58621;SDS011;44389;51.578;5.456;2023-05-17T02:00:44;27.75;;;11.93;;
58621;SDS011;44389;51.578;5.456;2023-05-17T02:05:36;24.35;;;11.10;;
58621;SDS011;44389;51.578;5.456;2023-05-17T02:08:01;28.33;;;12.35;;
58621;SDS011;44389;51.578;5.456;2023-05-17T02:10:27;28.55;;;13.73;;
58621;SDS011;44389;51.578;5.456;2023-05-17T02:12:53;25.60;;;11.45;;
58621;SDS011;44389;51.578;5.456;2023-05-17T02:15:18;31.52;;;12.55;;
58621;SDS011;44389;51.578;5.456;2023-05-17T02:17:43;35.13;;;13.23;;
58621;SDS011;44389;51.578;5.456;2023-05-17T02:20:09;27.20;;;12.52;;
58621;SDS011;44389;51.578;5.456;2023-05-17T02:22:35;28.67;;;14.38;;
58621;SDS011;44389;51.578;5.456;2023-05-17T02:25:01;25.88;;;13.25;;
58621;SDS011;44389;51.578;5.456;2023-05-17T02:27:26;26.13;;;13.13;;
58621;SDS011;44389;51.578;5.456;2023-05-17T02:29:52;31.30;;;13.90;;
58621;SDS011;44389;51.578;5.456;2023-05-17T02:32:17;27.83;;;13.77;;
58621;SDS011;44389;51.578;5.456;2023-05-17T02:34:42;32.08;;;13.93;;
58621;SDS011;44389;51.578;5.456;2023-05-17T02:37:07;27.45;;;13.35;;
58621;SDS011;44389;51.578;5.456;2023-05-17T02:39:33;23.63;;;13.05;;
58621;SDS011;44389;51.578;5.456;2023-05-17T02:41:58;33.22;;;15.20;;
58621;SDS011;44389;51.578;5.456;2023-05-17T02:44:23;28.58;;;14.68;;
58621;SDS011;44389;51.578;5.456;2023-05-17T02:46:48;38.20;;;15.95;;
58621;SDS011;44389;51.578;5.456;2023-05-17T02:49:14;34.83;;;16.70;;
58621;SDS011;44389;51.578;5.456;2023-05-17T02:51:39;39.25;;;17.00;;
58621;SDS011;44389;51.578;5.456;2023-05-17T02:54:04;33.90;;;16.20;;
58621;SDS011;44389;51.578;5.456;2023-05-17T02:56:30;32.42;;;15.60;;
58621;SDS011;44389;51.578;5.456;2023-05-17T02:58:55;33.30;;;15.75;;
58621;SDS011;44389;51.578;5.456;2023-05-17T03:01:21;33.78;;;16.50;;
58621;SDS011;44389;51.578;5.456;2023-05-17T03:03:47;33.25;;;15.05;;
58621;SDS011;44389;51.578;5.456;2023-05-17T03:06:12;35.03;;;16.52;;
58621;SDS011;44389;51.578;5.456;2023-05-17T03:08:38;39.35;;;17.10;;
58621;SDS011;44389;51.578;5.456;2023-05-17T03:11:04;37.15;;;16.13;;
58621;SDS011;44389;51.578;5.456;2023-05-17T03:13:29;36.20;;;15.77;;
58621;SDS011;44389;51.578;5.456;2023-05-17T03:15:55;35.78;;;15.48;;
58621;SDS011;44389;51.578;5.456;2023-05-17T03:18:21;30.05;;;14.85;;
58621;SDS011;44389;51.578;5.456;2023-05-17T03:20:46;34.25;;;15.52;;
58621;SDS011;44389;51.578;5.456;2023-05-17T03:23:11;37.17;;;16.35;;
58621;SDS011;44389;51.578;5.456;2023-05-17T03:25:37;38.42;;;15.75;;
58621;SDS011;44389;51.578;5.456;2023-05-17T03:28:02;43.50;;;15.90;;
58621;SDS011;44389;51.578;5.456;2023-05-17T03:30:27;30.10;;;15.15;;
58621;SDS011;44389;51.578;5.456;2023-05-17T03:32:53;32.33;;;14.60;;
58621;SDS011;44389;51.578;5.456;2023-05-17T03:35:18;37.75;;;14.27;;
58621;SDS011;44389;51.578;5.456;2023-05-17T03:37:44;30.95;;;14.48;;
58621;SDS011;44389;51.578;5.456;2023-05-17T03:40:09;30.58;;;13.73;;
58621;SDS011;44389;51.578;5.456;2023-05-17T03:42:35;29.08;;;13.57;;
58621;SDS011;44389;51.578;5.456;2023-05-17T03:45:01;29.92;;;13.45;;
58621;SDS011;44389;51.578;5.456;2023-05-17T03:47:26;36.53;;;13.52;;
58621;SDS011;44389;51.578;5.456;2023-05-17T03:49:52;34.33;;;13.35;;
58621;SDS011;44389;51.578;5.456;2023-05-17T03:52:17;31.98;;;12.77;;
58621;SDS011;44389;51.578;5.456;2023-05-17T03:54:42;33.83;;;13.90;;
58621;SDS011;44389;51.578;5.456;2023-05-17T03:57:07;28.17;;;13.02;;
58621;SDS011;44389;51.578;5.456;2023-05-17T03:59:33;29.90;;;12.75;;
58621;SDS011;44389;51.578;5.456;2023-05-17T04:01:58;30.85;;;12.68;;
58621;SDS011;44389;51.578;5.456;2023-05-17T04:04:23;28.25;;;12.82;;
58621;SDS011;44389;51.578;5.456;2023-05-17T04:06:48;35.90;;;13.75;;
58621;SDS011;44389;51.578;5.456;2023-05-17T04:09:14;31.63;;;12.00;;
58621;SDS011;44389;51.578;5.456;2023-05-17T04:11:42;30.05;;;13.15;;
58621;SDS011;44389;51.578;5.456;2023-05-17T04:14:08;26.20;;;13.05;;
58621;SDS011;44389;51.578;5.456;2023-05-17T04:16:33;24.20;;;11.73;;
58621;SDS011;44389;51.578;5.456;2023-05-17T04:18:58;30.90;;;13.95;;
58621;SDS011;44389;51.578;5.456;2023-05-17T04:21:24;30.08;;;12.32;;
58621;SDS011;44389;51.578;5.456;2023-05-17T04:23:50;28.02;;;13.00;;
58621;SDS011;44389;51.578;5.456;2023-05-17T04:26:15;28.52;;;13.07;;
58621;SDS011;44389;51.578;5.456;2023-05-17T04:28:41;31.77;;;13.63;;
58621;SDS011;44389;51.578;5.456;2023-05-17T04:31:06;32.17;;;13.57;;
58621;SDS011;44389;51.578;5.456;2023-05-17T04:33:32;31.40;;;13.02;;
58621;SDS011;44389;51.578;5.456;2023-05-17T04:35:58;33.47;;;12.13;;
58621;SDS011;44389;51.578;5.456;2023-05-17T04:38:23;36.22;;;14.63;;
58621;SDS011;44389;51.578;5.456;2023-05-17T04:40:48;29.08;;;13.93;;
58621;SDS011;44389;51.578;5.456;2023-05-17T04:43:14;29.77;;;14.15;;
58621;SDS011;44389;51.578;5.456;2023-05-17T04:45:40;35.13;;;15.35;;
58621;SDS011;44389;51.578;5.456;2023-05-17T04:48:05;35.83;;;15.75;;
58621;SDS011;44389;51.578;5.456;2023-05-17T04:50:31;36.58;;;13.95;;
58621;SDS011;44389;51.578;5.456;2023-05-17T04:52:56;30.67;;;14.10;;
58621;SDS011;44389;51.578;5.456;2023-05-17T04:55:22;37.42;;;15.30;;
58621;SDS011;44389;51.578;5.456;2023-05-17T04:57:47;32.30;;;13.80;;
58621;SDS011;44389;51.578;5.456;2023-05-17T05:00:13;36.58;;;14.25;;
58621;SDS011;44389;51.578;5.456;2023-05-17T05:02:39;34.95;;;15.20;;
58621;SDS011;44389;51.578;5.456;2023-05-17T05:05:05;30.10;;;14.23;;
58621;SDS011;44389;51.578;5.456;2023-05-17T05:07:31;37.65;;;14.95;;
58621;SDS011;44389;51.578;5.456;2023-05-17T05:09:56;32.83;;;15.68;;
58621;SDS011;44389;51.578;5.456;2023-05-17T05:12:22;37.80;;;14.88;;
58621;SDS011;44389;51.578;5.456;2023-05-17T05:14:48;37.92;;;17.13;;
58621;SDS011;44389;51.578;5.456;2023-05-17T05:17:14;32.55;;;15.07;;
58621;SDS011;44389;51.578;5.456;2023-05-17T05:19:39;35.13;;;15.93;;
58621;SDS011;44389;51.578;5.456;2023-05-17T05:22:04;39.17;;;15.63;;
58621;SDS011;44389;51.578;5.456;2023-05-17T05:24:30;33.95;;;15.93;;
58621;SDS011;44389;51.578;5.456;2023-05-17T05:26:55;42.97;;;16.73;;
58621;SDS011;44389;51.578;5.456;2023-05-17T05:29:20;40.55;;;17.52;;
58621;SDS011;44389;51.578;5.456;2023-05-17T05:31:46;43.85;;;17.73;;
58621;SDS011;44389;51.578;5.456;2023-05-17T05:34:11;37.60;;;14.95;;
58621;SDS011;44389;51.578;5.456;2023-05-17T05:36:36;34.65;;;15.73;;
58621;SDS011;44389;51.578;5.456;2023-05-17T05:39:02;33.17;;;13.88;;
58621;SDS011;44389;51.578;5.456;2023-05-17T05:41:27;36.25;;;14.30;;
58621;SDS011;44389;51.578;5.456;2023-05-17T05:43:52;32.88;;;14.13;;
58621;SDS011;44389;51.578;5.456;2023-05-17T05:46:18;38.60;;;14.85;;
58621;SDS011;44389;51.578;5.456;2023-05-17T05:48:43;30.58;;;13.07;;
58621;SDS011;44389;51.578;5.456;2023-05-17T05:51:08;35.20;;;13.35;;
58621;SDS011;44389;51.578;5.456;2023-05-17T05:53:35;31.02;;;12.73;;
58621;SDS011;44389;51.578;5.456;2023-05-17T05:56:01;34.72;;;11.98;;
58621;SDS011;44389;51.578;5.456;2023-05-17T05:58:27;32.15;;;10.20;;
58621;SDS011;44389;51.578;5.456;2023-05-17T06:00:53;28.40;;;10.70;;
58621;SDS011;44389;51.578;5.456;2023-05-17T06:03:18;28.83;;;10.82;;
58621;SDS011;44389;51.578;5.456;2023-05-17T06:05:43;32.28;;;10.65;;
58621;SDS011;44389;51.578;5.456;2023-05-17T06:08:09;30.42;;;9.75;;
58621;SDS011;44389;51.578;5.456;2023-05-17T06:10:34;28.60;;;9.02;;
58621;SDS011;44389;51.578;5.456;2023-05-17T06:12:59;25.88;;;8.48;;
58621;SDS011;44389;51.578;5.456;2023-05-17T06:15:25;28.83;;;8.25;;
58621;SDS011;44389;51.578;5.456;2023-05-17T06:17:51;26.52;;;7.15;;
58621;SDS011;44389;51.578;5.456;2023-05-17T06:20:16;24.75;;;6.78;;
58621;SDS011;44389;51.578;5.456;2023-05-17T06:22:42;21.10;;;6.13;;
58621;SDS011;44389;51.578;5.456;2023-05-17T06:25:08;28.02;;;5.93;;
58621;SDS011;44389;51.578;5.456;2023-05-17T06:27:34;21.52;;;5.63;;
58621;SDS011;44389;51.578;5.456;2023-05-17T06:30:00;18.88;;;4.70;;
58621;SDS011;44389;51.578;5.456;2023-05-17T06:32:25;24.90;;;4.90;;
58621;SDS011;44389;51.578;5.456;2023-05-17T06:34:51;18.98;;;4.70;;
58621;SDS011;44389;51.578;5.456;2023-05-17T06:37:16;24.60;;;4.93;;
58621;SDS011;44389;51.578;5.456;2023-05-17T06:39:41;17.95;;;4.43;;
58621;SDS011;44389;51.578;5.456;2023-05-17T06:42:07;20.70;;;4.93;;
58621;SDS011;44389;51.578;5.456;2023-05-17T06:44:32;18.58;;;4.82;;
58621;SDS011;44389;51.578;5.456;2023-05-17T06:46:57;24.65;;;4.78;;
58621;SDS011;44389;51.578;5.456;2023-05-17T06:49:24;23.80;;;4.85;;
58621;SDS011;44389;51.578;5.456;2023-05-17T06:51:50;19.85;;;4.55;;
58621;SDS011;44389;51.578;5.456;2023-05-17T06:54:15;23.73;;;4.32;;
58621;SDS011;44389;51.578;5.456;2023-05-17T06:56:41;21.20;;;4.88;;
58621;SDS011;44389;51.578;5.456;2023-05-17T06:59:06;23.00;;;4.75;;
58621;SDS011;44389;51.578;5.456;2023-05-17T07:01:32;17.30;;;4.60;;
58621;SDS011;44389;51.578;5.456;2023-05-17T07:03:57;15.75;;;3.92;;
58621;SDS011;44389;51.578;5.456;2023-05-17T07:06:22;14.98;;;3.97;;
58621;SDS011;44389;51.578;5.456;2023-05-17T07:08:47;20.77;;;4.10;;
58621;SDS011;44389;51.578;5.456;2023-05-17T07:11:13;17.42;;;4.45;;
58621;SDS011;44389;51.578;5.456;2023-05-17T07:13:38;17.55;;;3.67;;
58621;SDS011;44389;51.578;5.456;2023-05-17T07:16:05;19.40;;;4.18;;
58621;SDS011;44389;51.578;5.456;2023-05-17T07:18:31;18.05;;;4.72;;
58621;SDS011;44389;51.578;5.456;2023-05-17T07:20:57;20.23;;;4.60;;
58621;SDS011;44389;51.578;5.456;2023-05-17T07:23:22;19.25;;;4.55;;
58621;SDS011;44389;51.578;5.456;2023-05-17T07:25:47;19.08;;;4.25;;
58621;SDS011;44389;51.578;5.456;2023-05-17T07:28:12;15.98;;;3.83;;
58621;SDS011;44389;51.578;5.456;2023-05-17T07:30:38;18.63;;;4.30;;
58621;SDS011;44389;51.578;5.456;2023-05-17T07:33:03;20.30;;;4.18;;
58621;SDS011;44389;51.578;5.456;2023-05-17T07:35:28;15.93;;;3.63;;
58621;SDS011;44389;51.578;5.456;2023-05-17T07:37:54;14.63;;;3.65;;
58621;SDS011;44389;51.578;5.456;2023-05-17T07:40:19;19.73;;;4.70;;
58621;SDS011;44389;51.578;5.456;2023-05-17T07:42:45;14.73;;;3.85;;
58621;SDS011;44389;51.578;5.456;2023-05-17T07:45:11;17.35;;;3.63;;
58621;SDS011;44389;51.578;5.456;2023-05-17T07:47:36;14.57;;;4.00;;
58621;SDS011;44389;51.578;5.456;2023-05-17T07:50:02;19.00;;;3.58;;
58621;SDS011;44389;51.578;5.456;2023-05-17T07:52:28;15.38;;;3.42;;
58621;SDS011;44389;51.578;5.456;2023-05-17T07:54:53;14.35;;;3.33;;
58621;SDS011;44389;51.578;5.456;2023-05-17T07:57:19;13.25;;;3.55;;
58621;SDS011;44389;51.578;5.456;2023-05-17T07:59:44;17.05;;;3.85;;
58621;SDS011;44389;51.578;5.456;2023-05-17T08:02:10;16.40;;;3.60;;
58621;SDS011;44389;51.578;5.456;2023-05-17T08:04:35;20.73;;;3.75;;
58621;SDS011;44389;51.578;5.456;2023-05-17T08:07:01;17.00;;;3.75;;
58621;SDS011;44389;51.578;5.456;2023-05-17T08:09:26;15.82;;;3.50;;
58621;SDS011;44389;51.578;5.456;2023-05-17T08:11:51;17.60;;;4.13;;
58621;SDS011;44389;51.578;5.456;2023-05-17T08:14:17;16.30;;;3.50;;
58621;SDS011;44389;51.578;5.456;2023-05-17T08:16:44;14.93;;;3.15;;
58621;SDS011;44389;51.578;5.456;2023-05-17T08:19:12;14.50;;;3.45;;
58621;SDS011;44389;51.578;5.456;2023-05-17T08:21:39;16.05;;;3.20;;
58621;SDS011;44389;51.578;5.456;2023-05-17T08:24:05;12.48;;;3.15;;
58621;SDS011;44389;51.578;5.456;2023-05-17T08:26:31;13.35;;;3.35;;
58621;SDS011;44389;51.578;5.456;2023-05-17T08:28:57;15.65;;;3.58;;
58621;SDS011;44389;51.578;5.456;2023-05-17T08:31:22;16.15;;;3.20;;
58621;SDS011;44389;51.578;5.456;2023-05-17T08:33:47;14.25;;;3.35;;
58621;SDS011;44389;51.578;5.456;2023-05-17T08:36:12;15.77;;;3.08;;
58621;SDS011;44389;51.578;5.456;2023-05-17T08:38:38;10.88;;;2.55;;
58621;SDS011;44389;51.578;5.456;2023-05-17T08:41:03;11.57;;;2.42;;
58621;SDS011;44389;51.578;5.456;2023-05-17T08:43:28;13.70;;;3.28;;
58621;SDS011;44389;51.578;5.456;2023-05-17T08:45:55;13.02;;;2.88;;
58621;SDS011;44389;51.578;5.456;2023-05-17T08:48:21;10.38;;;2.60;;
58621;SDS011;44389;51.578;5.456;2023-05-17T08:50:49;14.73;;;3.00;;
58621;SDS011;44389;51.578;5.456;2023-05-17T08:53:15;11.23;;;2.50;;
58621;SDS011;44389;51.578;5.456;2023-05-17T08:55:42;11.10;;;2.83;;
58621;SDS011;44389;51.578;5.456;2023-05-17T08:58:11;13.70;;;3.13;;
58621;SDS011;44389;51.578;5.456;2023-05-17T09:00:38;10.82;;;2.67;;
58621;SDS011;44389;51.578;5.456;2023-05-17T09:03:04;10.63;;;2.63;;
58621;SDS011;44389;51.578;5.456;2023-05-17T09:05:30;7.70;;;2.30;;
58621;SDS011;44389;51.578;5.456;2023-05-17T09:07:55;11.25;;;2.78;;
58621;SDS011;44389;51.578;5.456;2023-05-17T09:10:23;10.25;;;2.95;;
58621;SDS011;44389;51.578;5.456;2023-05-17T09:12:48;12.43;;;2.42;;
58621;SDS011;44389;51.578;5.456;2023-05-17T09:15:18;13.30;;;2.83;;
58621;SDS011;44389;51.578;5.456;2023-05-17T09:17:54;14.60;;;2.83;;
58621;SDS011;44389;51.578;5.456;2023-05-17T09:20:27;13.27;;;3.40;;
58621;SDS011;44389;51.578;5.456;2023-05-17T09:23:00;11.90;;;3.05;;
58621;SDS011;44389;51.578;5.456;2023-05-17T09:25:30;13.68;;;3.15;;
58621;SDS011;44389;51.578;5.456;2023-05-17T09:27:59;13.48;;;2.85;;
58621;SDS011;44389;51.578;5.456;2023-05-17T09:30:29;11.90;;;3.30;;
58621;SDS011;44389;51.578;5.456;2023-05-17T09:32:56;14.35;;;3.30;;
58621;SDS011;44389;51.578;5.456;2023-05-17T09:35:28;15.40;;;2.95;;
58621;SDS011;44389;51.578;5.456;2023-05-17T09:37:55;14.25;;;2.85;;
58621;SDS011;44389;51.578;5.456;2023-05-17T09:40:29;11.20;;;2.90;;
58621;SDS011;44389;51.578;5.456;2023-05-17T09:42:54;12.38;;;3.00;;
58621;SDS011;44389;51.578;5.456;2023-05-17T09:45:20;9.95;;;2.88;;
58621;SDS011;44389;51.578;5.456;2023-05-17T09:47:47;14.00;;;3.30;;
58621;SDS011;44389;51.578;5.456;2023-05-17T09:50:16;11.77;;;2.83;;
58621;SDS011;44389;51.578;5.456;2023-05-17T09:52:43;12.82;;;2.92;;
58621;SDS011;44389;51.578;5.456;2023-05-17T09:55:08;10.10;;;2.50;;
58621;SDS011;44389;51.578;5.456;2023-05-17T09:57:36;9.48;;;2.63;;
58621;SDS011;44389;51.578;5.456;2023-05-17T10:00:02;10.77;;;2.85;;
58621;SDS011;44389;51.578;5.456;2023-05-17T10:02:37;8.30;;;2.33;;
58621;SDS011;44389;51.578;5.456;2023-05-17T10:05:10;10.18;;;2.45;;
58621;SDS011;44389;51.578;5.456;2023-05-17T10:07:37;11.70;;;3.00;;
58621;SDS011;44389;51.578;5.456;2023-05-17T10:10:03;10.23;;;2.60;;
58621;SDS011;44389;51.578;5.456;2023-05-17T10:12:31;12.30;;;2.92;;
58621;SDS011;44389;51.578;5.456;2023-05-17T10:14:59;10.85;;;2.38;;
58621;SDS011;44389;51.578;5.456;2023-05-17T10:17:25;6.65;;;2.13;;
58621;SDS011;44389;51.578;5.456;2023-05-17T10:19:53;8.05;;;2.25;;
58621;SDS011;44389;51.578;5.456;2023-05-17T10:22:20;8.73;;;2.92;;
58621;SDS011;44389;51.578;5.456;2023-05-17T10:24:46;9.15;;;2.80;;
58621;SDS011;44389;51.578;5.456;2023-05-17T10:27:12;9.65;;;2.30;;
58621;SDS011;44389;51.578;5.456;2023-05-17T10:29:38;10.35;;;2.25;;
58621;SDS011;44389;51.578;5.456;2023-05-17T10:32:06;9.50;;;1.90;;
58621;SDS011;44389;51.578;5.456;2023-05-17T10:34:33;6.95;;;1.98;;
58621;SDS011;44389;51.578;5.456;2023-05-17T10:37:02;8.75;;;2.25;;
58621;SDS011;44389;51.578;5.456;2023-05-17T10:39:28;7.20;;;2.00;;
58621;SDS011;44389;51.578;5.456;2023-05-17T10:41:54;9.60;;;2.03;;
58621;SDS011;44389;51.578;5.456;2023-05-17T10:44:21;8.45;;;2.20;;
58621;SDS011;44389;51.578;5.456;2023-05-17T10:46:51;9.43;;;2.17;;
58621;SDS011;44389;51.578;5.456;2023-05-17T10:49:18;8.43;;;2.10;;
58621;SDS011;44389;51.578;5.456;2023-05-17T10:51:43;7.47;;;1.70;;
58621;SDS011;44389;51.578;5.456;2023-05-17T10:54:10;11.52;;;1.90;;
58621;SDS011;44389;51.578;5.456;2023-05-17T10:59:18;8.02;;;2.15;;
58621;SDS011;44389;51.578;5.456;2023-05-17T11:04:19;7.07;;;1.80;;
58621;SDS011;44389;51.578;5.456;2023-05-17T11:06:52;8.68;;;2.25;;
58621;SDS011;44389;51.578;5.456;2023-05-17T11:09:44;8.45;;;2.03;;
58621;SDS011;44389;51.578;5.456;2023-05-17T11:12:13;6.90;;;1.52;;
58621;SDS011;44389;51.578;5.456;2023-05-17T11:14:46;6.23;;;1.90;;
58621;SDS011;44389;51.578;5.456;2023-05-17T11:17:20;8.95;;;1.70;;
58621;SDS011;44389;51.578;5.456;2023-05-17T11:19:48;7.63;;;1.75;;
58621;SDS011;44389;51.578;5.456;2023-05-17T11:22:21;10.30;;;1.88;;
58621;SDS011;44389;51.578;5.456;2023-05-17T11:24:47;6.95;;;1.90;;
58621;SDS011;44389;51.578;5.456;2023-05-17T11:27:17;6.68;;;1.67;;
58621;SDS011;44389;51.578;5.456;2023-05-17T11:29:47;8.27;;;2.13;;
58621;SDS011;44389;51.578;5.456;2023-05-17T11:32:12;7.47;;;1.90;;
58621;SDS011;44389;51.578;5.456;2023-05-17T11:34:37;6.85;;;2.35;;
58621;SDS011;44389;51.578;5.456;2023-05-17T11:37:03;6.40;;;1.85;;
58621;SDS011;44389;51.578;5.456;2023-05-17T11:39:30;11.52;;;2.20;;
58621;SDS011;44389;51.578;5.456;2023-05-17T11:41:55;9.00;;;2.17;;
58621;SDS011;44389;51.578;5.456;2023-05-17T11:44:28;9.63;;;1.83;;
58621;SDS011;44389;51.578;5.456;2023-05-17T11:47:04;6.07;;;1.77;;
58621;SDS011;44389;51.578;5.456;2023-05-17T11:49:35;10.95;;;2.28;;
58621;SDS011;44389;51.578;5.456;2023-05-17T11:52:01;7.70;;;1.42;;
58621;SDS011;44389;51.578;5.456;2023-05-17T11:54:27;7.60;;;1.85;;
58621;SDS011;44389;51.578;5.456;2023-05-17T11:56:54;8.02;;;1.88;;
58621;SDS011;44389;51.578;5.456;2023-05-17T11:59:20;7.35;;;1.60;;
58621;SDS011;44389;51.578;5.456;2023-05-17T12:01:47;7.50;;;1.70;;
58621;SDS011;44389;51.578;5.456;2023-05-17T12:04:15;6.75;;;1.50;;
58621;SDS011;44389;51.578;5.456;2023-05-17T12:06:48;7.15;;;1.60;;
58621;SDS011;44389;51.578;5.456;2023-05-17T12:09:14;8.55;;;1.98;;
58621;SDS011;44389;51.578;5.456;2023-05-17T12:11:41;9.77;;;1.80;;
58621;SDS011;44389;51.578;5.456;2023-05-17T12:14:07;7.43;;;1.70;;
58621;SDS011;44389;51.578;5.456;2023-05-17T12:16:32;5.68;;;1.75;;
58621;SDS011;44389;51.578;5.456;2023-05-17T12:19:05;8.75;;;1.70;;
58621;SDS011;44389;51.578;5.456;2023-05-17T12:21:41;7.97;;;1.63;;
58621;SDS011;44389;51.578;5.456;2023-05-17T12:24:06;8.95;;;1.80;;
58621;SDS011;44389;51.578;5.456;2023-05-17T12:26:32;5.20;;;1.70;;
58621;SDS011;44389;51.578;5.456;2023-05-17T12:28:58;6.50;;;1.98;;
58621;SDS011;44389;51.578;5.456;2023-05-17T12:31:31;11.30;;;2.38;;
58621;SDS011;44389;51.578;5.456;2023-05-17T12:33:59;7.53;;;1.75;;
58621;SDS011;44389;51.578;5.456;2023-05-17T12:36:26;7.73;;;1.90;;
58621;SDS011;44389;51.578;5.456;2023-05-17T12:38:54;8.05;;;1.92;;
58621;SDS011;44389;51.578;5.456;2023-05-17T12:41:19;9.90;;;1.70;;
58621;SDS011;44389;51.578;5.456;2023-05-17T12:43:46;8.30;;;1.70;;
58621;SDS011;44389;51.578;5.456;2023-05-17T12:46:12;8.25;;;2.00;;
58621;SDS011;44389;51.578;5.456;2023-05-17T12:48:42;6.20;;;1.80;;
58621;SDS011;44389;51.578;5.456;2023-05-17T12:51:12;7.38;;;1.70;;
58621;SDS011;44389;51.578;5.456;2023-05-17T12:53:39;7.38;;;1.73;;
58621;SDS011;44389;51.578;5.456;2023-05-17T12:56:06;9.20;;;2.10;;
58621;SDS011;44389;51.578;5.456;2023-05-17T12:58:32;8.03;;;2.50;;
58621;SDS011;44389;51.578;5.456;2023-05-17T13:00:59;9.10;;;2.20;;
58621;SDS011;44389;51.578;5.456;2023-05-17T13:03:25;5.53;;;1.60;;
58621;SDS011;44389;51.578;5.456;2023-05-17T13:06:01;9.35;;;2.03;;
58621;SDS011;44389;51.578;5.456;2023-05-17T13:08:27;10.32;;;2.00;;
58621;SDS011;44389;51.578;5.456;2023-05-17T13:11:03;6.80;;;1.88;;
58621;SDS011;44389;51.578;5.456;2023-05-17T13:13:31;9.32;;;1.80;;
58621;SDS011;44389;51.578;5.456;2023-05-17T13:15:57;5.72;;;1.80;;
58621;SDS011;44389;51.578;5.456;2023-05-17T13:18:23;7.68;;;1.73;;
58621;SDS011;44389;51.578;5.456;2023-05-17T13:20:48;6.93;;;1.90;;
58621;SDS011;44389;51.578;5.456;2023-05-17T13:23:15;7.22;;;2.15;;
58621;SDS011;44389;51.578;5.456;2023-05-17T13:25:41;11.43;;;2.13;;
58621;SDS011;44389;51.578;5.456;2023-05-17T13:28:06;9.87;;;1.97;;
58621;SDS011;44389;51.578;5.456;2023-05-17T13:30:31;10.80;;;2.20;;
58621;SDS011;44389;51.578;5.456;2023-05-17T13:32:57;7.32;;;1.88;;
58621;SDS011;44389;51.578;5.456;2023-05-17T13:35:22;8.32;;;1.90;;
58621;SDS011;44389;51.578;5.456;2023-05-17T13:37:47;11.40;;;2.00;;
58621;SDS011;44389;51.578;5.456;2023-05-17T13:40:13;9.18;;;2.10;;
58621;SDS011;44389;51.578;5.456;2023-05-17T13:42:38;7.90;;;1.67;;
58621;SDS011;44389;51.578;5.456;2023-05-17T13:45:04;9.93;;;1.70;;
58621;SDS011;44389;51.578;5.456;2023-05-17T13:47:30;6.32;;;1.80;;
58621;SDS011;44389;51.578;5.456;2023-05-17T13:49:56;7.50;;;1.95;;
58621;SDS011;44389;51.578;5.456;2023-05-17T13:52:23;8.57;;;2.00;;
58621;SDS011;44389;51.578;5.456;2023-05-17T13:54:49;27.10;;;2.45;;
58621;SDS011;44389;51.578;5.456;2023-05-17T13:57:14;8.32;;;1.98;;
58621;SDS011;44389;51.578;5.456;2023-05-17T13:59:40;7.05;;;1.90;;
58621;SDS011;44389;51.578;5.456;2023-05-17T14:02:05;8.10;;;1.95;;
58621;SDS011;44389;51.578;5.456;2023-05-17T14:06:58;10.35;;;2.78;;
58621;SDS011;44389;51.578;5.456;2023-05-17T14:09:24;10.15;;;1.90;;
58621;SDS011;44389;51.578;5.456;2023-05-17T14:11:49;12.38;;;2.38;;
58621;SDS011;44389;51.578;5.456;2023-05-17T14:14:14;12.25;;;2.70;;
58621;SDS011;44389;51.578;5.456;2023-05-17T14:16:40;10.40;;;2.30;;
58621;SDS011;44389;51.578;5.456;2023-05-17T14:19:05;8.88;;;2.35;;
58621;SDS011;44389;51.578;5.456;2023-05-17T14:21:31;9.82;;;1.95;;
58621;SDS011;44389;51.578;5.456;2023-05-17T14:23:56;7.32;;;1.98;;
58621;SDS011;44389;51.578;5.456;2023-05-17T14:26:21;10.02;;;2.10;;
58621;SDS011;44389;51.578;5.456;2023-05-17T14:28:47;10.73;;;2.35;;
58621;SDS011;44389;51.578;5.456;2023-05-17T14:31:12;10.73;;;2.40;;
58621;SDS011;44389;51.578;5.456;2023-05-17T14:33:38;11.13;;;2.35;;
58621;SDS011;44389;51.578;5.456;2023-05-17T14:36:03;8.00;;;2.13;;
58621;SDS011;44389;51.578;5.456;2023-05-17T14:38:29;11.30;;;2.97;;
58621;SDS011;44389;51.578;5.456;2023-05-17T14:40:54;11.70;;;2.47;;
58621;SDS011;44389;51.578;5.456;2023-05-17T14:43:19;9.57;;;2.25;;
58621;SDS011;44389;51.578;5.456;2023-05-17T14:45:45;8.05;;;2.33;;
58621;SDS011;44389;51.578;5.456;2023-05-17T14:48:10;7.85;;;2.10;;
58621;SDS011;44389;51.578;5.456;2023-05-17T14:50:35;9.85;;;2.10;;
58621;SDS011;44389;51.578;5.456;2023-05-17T14:53:01;11.48;;;2.50;;
58621;SDS011;44389;51.578;5.456;2023-05-17T14:55:26;7.88;;;2.22;;